Time;durP1;ratioP1;P1;durP2;ratioP2;P2;SDS_P1;SDS_P2;PMS_P1;PMS_P2;Temp;Humidity;BMP_temperature;BMP_pressure;BME280_temperature;BME280_humidity;BME280_pressure;Samples;Min_cycle;Max_cycle;Signal;HPM_P1;HPM_P2
2021/08/12 00:00:51;;;;;;;8.07;7.37;;;17.10;99.90;;;;;;4897348;29;20209;-79
2021/08/12 00:03:18;;;;;;;9.83;8.93;;;17.00;99.90;;;;;;4897155;29;20280;-79
2021/08/12 00:05:44;;;;;;;9.73;8.83;;;17.00;99.90;;;;;;4898499;29;20379;-80
2021/08/12 00:08:12;;;;;;;8.60;7.83;;;17.00;99.90;;;;;;4896872;29;20208;-79
2021/08/12 00:10:39;;;;;;;8.20;6.33;;;16.90;99.90;;;;;;4897377;29;20278;-80
2021/08/12 00:13:06;;;;;;;7.90;6.60;;;16.90;99.90;;;;;;4898242;29;20230;-80
2021/08/12 00:15:33;;;;;;;11.13;10.03;;;16.90;99.90;;;;;;4898246;29;20679;-80
2021/08/12 00:18:00;;;;;;;10.03;8.67;;;16.80;99.90;;;;;;4896892;29;20205;-80
2021/08/12 00:20:27;;;;;;;10.17;9.27;;;16.80;99.90;;;;;;4898227;29;20206;-80
2021/08/12 00:22:54;;;;;;;10.43;9.57;;;16.80;99.90;;;;;;4897938;29;20222;-80
2021/08/12 00:25:22;;;;;;;10.03;9.17;;;16.80;99.90;;;;;;4898127;29;20702;-80
2021/08/12 00:27:49;;;;;;;10.47;9.57;;;16.80;99.90;;;;;;4897204;29;20211;-80
2021/08/12 00:30:15;;;;;;;10.23;9.33;;;16.70;99.90;;;;;;4897077;29;20220;-80
2021/08/12 00:32:42;;;;;;;10.47;9.47;;;16.70;99.90;;;;;;4896522;29;20230;-80
2021/08/12 00:35:10;;;;;;;11.00;9.87;;;16.60;99.90;;;;;;4896283;29;20568;-80
2021/08/12 00:37:38;;;;;;;11.07;9.97;;;16.60;99.90;;;;;;4896184;29;20211;-80
2021/08/12 00:40:07;;;;;;;10.20;9.10;;;16.60;99.90;;;;;;4896441;29;20585;-80
2021/08/12 00:42:37;;;;;;;7.00;5.80;;;16.60;99.90;;;;;;4895619;29;20784;-80
2021/08/12 00:45:05;;;;;;;11.70;6.87;;;16.60;99.90;;;;;;4895987;29;20566;-80
2021/08/12 00:47:33;;;;;;;8.70;6.47;;;16.60;99.90;;;;;;4896285;29;20209;-80
2021/08/12 00:50:00;;;;;;;8.40;5.63;;;16.60;99.90;;;;;;4896625;29;20198;-79
2021/08/12 00:52:31;;;;;;;11.00;10.00;;;16.50;99.90;;;;;;4896551;29;20239;-79
2021/08/12 00:54:58;;;;;;;11.30;10.30;;;16.50;99.90;;;;;;4896978;29;20191;-80
2021/08/12 00:57:26;;;;;;;13.33;9.57;;;16.40;99.90;;;;;;4897597;29;20586;-80
2021/08/12 00:59:55;;;;;;;7.60;6.80;;;16.40;99.90;;;;;;4896381;29;20808;-80
2021/08/12 01:02:22;;;;;;;11.23;10.10;;;16.40;99.90;;;;;;4893393;29;20249;-80
2021/08/12 01:04:50;;;;;;;10.70;9.80;;;16.40;99.90;;;;;;4892214;29;20219;-79
2021/08/12 01:07:28;;;;;;;13.17;10.03;;;16.40;99.90;;;;;;4896882;29;20298;-79
2021/08/12 01:10:05;;;;;;;11.83;10.63;;;16.40;99.90;;;;;;4889112;29;20205;-80
2021/08/12 01:12:44;;;;;;;11.00;9.90;;;16.30;99.90;;;;;;4890437;29;20709;-79
2021/08/12 01:15:21;;;;;;;10.80;9.77;;;16.30;99.90;;;;;;4891646;29;20554;-79
2021/08/12 01:17:52;;;;;;;10.60;9.67;;;16.30;99.90;;;;;;4897192;29;20212;-80
2021/08/12 01:20:42;;;;;;;11.13;9.63;;;16.30;99.90;;;;;;4896466;29;20205;-79
2021/08/12 01:23:13;;;;;;;10.30;9.37;;;16.30;99.90;;;;;;4891413;29;20236;-80
2021/08/12 01:25:43;;;;;;;10.60;9.60;;;16.30;99.90;;;;;;4895755;29;20284;-80
2021/08/12 01:28:14;;;;;;;11.03;10.10;;;16.30;99.90;;;;;;4895946;29;20197;-79
2021/08/12 01:31:03;;;;;;;11.00;10.00;;;16.30;99.90;;;;;;4896067;29;20197;-79
2021/08/12 01:33:43;;;;;;;11.43;10.33;;;16.20;99.90;;;;;;4896119;29;20604;-79
2021/08/12 01:36:14;;;;;;;11.27;10.33;;;16.20;99.90;;;;;;4895859;29;20203;-80
2021/08/12 01:38:42;;;;;;;10.67;9.77;;;16.10;99.90;;;;;;4895479;29;20711;-79
2021/08/12 01:41:09;;;;;;;11.43;10.33;;;16.10;99.90;;;;;;4895650;29;20262;-80
2021/08/12 01:43:36;;;;;;;11.53;10.43;;;16.10;99.90;;;;;;4895544;29;20617;-79
2021/08/12 01:46:07;;;;;;;11.23;10.23;;;16.10;99.90;;;;;;4895772;29;20225;-80
2021/08/12 01:48:34;;;;;;;11.93;10.93;;;16.10;99.90;;;;;;4892411;29;20206;-80
2021/08/12 01:51:03;;;;;;;11.53;10.43;;;16.10;99.90;;;;;;4895639;29;20241;-79
2021/08/12 01:53:33;;;;;;;11.50;10.50;;;16.00;99.90;;;;;;4916836;23;20252;-76
2021/08/12 01:56:01;;;;;;;11.70;10.70;;;16.00;99.90;;;;;;4903520;29;20196;-76
2021/08/12 01:58:31;;;;;;;11.10;10.20;;;15.90;99.90;;;;;;4895082;29;20192;-76
2021/08/12 02:01:00;;;;;;;11.20;10.17;;;15.90;99.90;;;;;;4887731;29;20287;-76
2021/08/12 02:03:28;;;;;;;12.07;10.97;;;15.90;99.90;;;;;;4896587;29;20224;-76
2021/08/12 02:05:57;;;;;;;11.80;10.80;;;15.90;99.90;;;;;;4895173;29;20292;-76
2021/08/12 02:08:24;;;;;;;12.50;11.40;;;15.90;99.90;;;;;;4894962;29;20208;-76
2021/08/12 02:10:56;;;;;;;12.60;11.53;;;15.80;99.90;;;;;;4895306;29;20706;-76
2021/08/12 02:13:28;;;;;;;11.90;10.90;;;15.80;99.90;;;;;;4895113;29;20232;-76
2021/08/12 02:15:56;;;;;;;11.50;10.50;;;15.80;99.90;;;;;;4895028;29;20199;-76
2021/08/12 02:18:22;;;;;;;11.80;10.80;;;15.80;99.90;;;;;;4894887;29;20201;-76
2021/08/12 02:20:56;;;;;;;11.43;10.43;;;15.70;99.90;;;;;;4895135;29;20197;-76
2021/08/12 02:23:28;;;;;;;12.77;11.63;;;15.70;99.90;;;;;;4895159;29;20216;-76
2021/08/12 02:26:02;;;;;;;13.13;11.93;;;15.70;99.90;;;;;;4894802;29;20208;-76
2021/08/12 02:28:31;;;;;;;12.33;11.33;;;15.70;99.90;;;;;;4894889;29;20200;-76
2021/08/12 02:30:59;;;;;;;13.93;12.63;;;15.70;99.90;;;;;;4887665;29;20638;-77
2021/08/12 02:33:31;;;;;;;12.33;11.33;;;15.70;99.90;;;;;;4896577;29;20248;-76
2021/08/12 02:35:58;;;;;;;13.17;12.00;;;15.60;99.90;;;;;;4887864;29;20215;-76
2021/08/12 02:38:26;;;;;;;12.87;11.77;;;15.60;99.90;;;;;;4894672;29;20232;-76
2021/08/12 02:40:57;;;;;;;12.53;11.47;;;15.60;99.90;;;;;;4895121;29;20279;-76
2021/08/12 02:43:27;;;;;;;11.90;10.90;;;15.60;99.90;;;;;;4897052;29;20275;-81
2021/08/12 02:45:57;;;;;;;12.87;11.83;;;15.50;99.90;;;;;;4897783;29;20217;-80
2021/08/12 02:48:27;;;;;;;13.50;12.37;;;15.50;99.90;;;;;;4896289;29;20204;-79
2021/08/12 02:50:56;;;;;;;13.10;12.00;;;15.50;99.90;;;;;;4895550;29;20205;-79
2021/08/12 02:53:24;;;;;;;12.60;11.47;;;15.40;99.90;;;;;;4893098;29;20233;-79
2021/08/12 02:55:53;;;;;;;12.43;11.37;;;15.40;99.90;;;;;;4880571;29;20197;-77
2021/08/12 02:58:21;;;;;;;11.90;10.67;;;15.40;99.90;;;;;;4896242;29;20205;-79
2021/08/12 03:00:51;;;;;;;13.47;12.33;;;15.40;99.90;;;;;;4896944;29;20200;-80
2021/08/12 03:03:19;;;;;;;11.97;10.87;;;15.30;99.90;;;;;;4880855;29;20221;-82
2021/08/12 03:05:47;;;;;;;11.90;10.90;;;15.30;99.90;;;;;;4893840;29;20292;-79
2021/08/12 03:08:18;;;;;;;12.03;11.03;;;15.30;99.90;;;;;;4895770;29;20623;-80
2021/08/12 03:10:47;;;;;;;11.73;10.73;;;15.30;99.90;;;;;;4888143;29;20204;-78
2021/08/12 03:13:15;;;;;;;11.67;10.77;;;15.30;99.90;;;;;;4894866;29;20232;-77
2021/08/12 03:15:43;;;;;;;12.83;11.63;;;15.20;99.90;;;;;;4897730;29;20201;-76
2021/08/12 03:18:12;;;;;;;12.47;11.47;;;15.20;99.90;;;;;;4900382;29;20203;-78
2021/08/12 03:20:41;;;;;;;12.87;11.63;;;15.20;99.90;;;;;;4901493;29;20192;-77
2021/08/12 03:23:09;;;;;;;12.07;10.97;;;15.20;99.90;;;;;;4887258;29;20208;-77
2021/08/12 03:25:36;;;;;;;13.07;11.87;;;15.20;99.90;;;;;;4900481;29;20221;-76
2021/08/12 03:28:05;;;;;;;12.10;11.10;;;15.20;99.90;;;;;;4899399;29;20211;-77
2021/08/12 03:30:32;;;;;;;12.43;11.43;;;15.20;99.90;;;;;;4900331;29;20355;-76
2021/08/12 03:32:59;;;;;;;13.13;11.87;;;15.20;99.90;;;;;;4899541;29;20281;-78
2021/08/12 03:35:28;;;;;;;11.93;10.93;;;15.20;99.90;;;;;;4899747;29;20742;-76
2021/08/12 03:37:55;;;;;;;11.80;10.83;;;15.20;99.90;;;;;;4901066;29;20201;-76
2021/08/12 03:40:22;;;;;;;11.77;10.77;;;15.10;99.90;;;;;;4897289;29;20671;-82
2021/08/12 03:42:49;;;;;;;11.40;10.47;;;15.10;99.90;;;;;;4897587;29;20235;-77
2021/08/12 03:45:16;;;;;;;12.60;11.60;;;15.10;99.90;;;;;;4898558;29;20681;-77
2021/08/12 03:47:43;;;;;;;11.97;10.97;;;15.10;99.90;;;;;;4897813;29;20201;-77
2021/08/12 03:50:11;;;;;;;11.90;10.80;;;15.10;99.90;;;;;;4898103;29;20201;-75
2021/08/12 03:52:39;;;;;;;12.40;11.40;;;15.10;99.90;;;;;;4899259;29;20223;-77
2021/08/12 03:55:07;;;;;;;12.10;10.90;;;15.10;99.90;;;;;;4897951;29;20701;-77
2021/08/12 03:57:40;;;;;;;12.13;11.03;;;15.00;99.90;;;;;;4896889;29;20220;-77
2021/08/12 04:00:08;;;;;;;12.43;11.37;;;15.00;99.90;;;;;;4897425;29;20196;-77
2021/08/12 04:02:39;;;;;;;12.90;11.83;;;15.00;99.90;;;;;;4898477;29;20280;-77
2021/08/12 04:05:08;;;;;;;12.87;11.70;;;15.00;99.90;;;;;;4897516;29;20228;-77
2021/08/12 04:07:35;;;;;;;13.23;12.13;;;15.00;99.90;;;;;;4896894;29;20224;-77
2021/08/12 04:10:05;;;;;;;13.00;11.93;;;14.90;99.90;;;;;;4897118;29;20683;-76
2021/08/12 04:12:32;;;;;;;12.37;11.37;;;15.00;99.90;;;;;;4897278;29;20205;-77
2021/08/12 04:14:59;;;;;;;13.03;12.03;;;15.00;99.90;;;;;;4897100;29;20684;-76
2021/08/12 04:17:27;;;;;;;13.90;12.70;;;15.00;99.90;;;;;;4896807;29;20208;-76
2021/08/12 04:19:54;;;;;;;13.13;12.13;;;15.00;99.90;;;;;;4895744;29;20698;-77
2021/08/12 04:22:21;;;;;;;13.53;12.50;;;15.00;99.90;;;;;;4896741;29;20204;-76
2021/08/12 04:24:47;;;;;;;13.97;12.77;;;15.00;99.90;;;;;;4896514;29;20204;-76
2021/08/12 04:27:17;;;;;;;14.50;13.10;;;15.10;99.90;;;;;;4896363;29;20228;-77
2021/08/12 04:29:44;;;;;;;13.40;12.27;;;15.10;99.90;;;;;;4896508;29;20215;-76
2021/08/12 04:32:11;;;;;;;13.07;12.07;;;15.10;99.90;;;;;;4897929;29;20200;-77
2021/08/12 04:34:39;;;;;;;13.50;12.37;;;15.10;99.90;;;;;;4896312;29;20239;-77
2021/08/12 04:37:05;;;;;;;12.77;11.77;;;15.10;99.90;;;;;;4896204;29;20201;-77
2021/08/12 04:39:32;;;;;;;13.23;12.17;;;15.20;99.90;;;;;;4896440;29;20353;-77
2021/08/12 04:41:59;;;;;;;13.83;12.73;;;15.20;99.90;;;;;;4896481;29;20204;-77
2021/08/12 04:44:28;;;;;;;13.57;12.47;;;15.30;99.90;;;;;;4896643;29;20239;-77
2021/08/12 04:46:55;;;;;;;14.90;13.57;;;15.40;99.90;;;;;;4895952;29;20209;-77
2021/08/12 04:49:22;;;;;;;15.10;13.90;;;15.50;99.90;;;;;;4896731;29;20638;-77
2021/08/12 04:51:49;;;;;;;14.83;13.63;;;15.50;99.90;;;;;;4897954;29;20244;-77
2021/08/12 04:54:16;;;;;;;12.07;9.57;;;15.60;99.90;;;;;;4896141;29;20268;-77
2021/08/12 04:56:44;;;;;;;10.03;9.03;;;15.70;99.90;;;;;;4896087;29;20689;-77
2021/08/12 04:59:11;;;;;;;11.57;10.57;;;15.70;99.90;;;;;;4897561;29;20547;-77
2021/08/12 05:01:39;;;;;;;13.50;12.50;;;15.80;99.90;;;;;;4896050;29;20193;-77
2021/08/12 05:04:06;;;;;;;9.90;8.90;;;16.00;99.90;;;;;;4895991;29;20227;-77
2021/08/12 05:06:33;;;;;;;12.87;11.83;;;16.10;99.90;;;;;;4895916;29;20221;-77
2021/08/12 05:09:00;;;;;;;9.13;8.17;;;16.30;99.90;;;;;;4895636;29;20201;-77
2021/08/12 05:11:27;;;;;;;8.10;7.30;;;16.50;99.90;;;;;;4895706;29;20207;-77
2021/08/12 05:13:54;;;;;;;10.87;9.77;;;16.70;99.90;;;;;;4896994;29;20219;-77
2021/08/12 05:16:21;;;;;;;12.87;11.77;;;17.00;99.90;;;;;;4895852;29;20235;-77
2021/08/12 05:18:50;;;;;;;14.00;12.80;;;17.20;99.90;;;;;;4895298;29;20207;-77
2021/08/12 05:21:17;;;;;;;10.87;9.77;;;17.50;99.90;;;;;;4895726;29;20232;-77
2021/08/12 05:23:44;;;;;;;10.90;10.00;;;17.80;99.90;;;;;;4897067;29;20227;-77
2021/08/12 05:26:12;;;;;;;7.43;6.60;;;18.00;99.90;;;;;;4889939;29;20210;-77
2021/08/12 05:28:39;;;;;;;10.53;9.43;;;18.10;99.90;;;;;;4896676;29;20204;-77
2021/08/12 05:31:06;;;;;;;10.23;9.33;;;18.30;99.90;;;;;;4895138;29;20202;-77
2021/08/12 05:33:36;;;;;;;8.93;6.63;;;18.50;99.90;;;;;;4895601;29;20236;-77
2021/08/12 05:36:05;;;;;;;9.67;8.73;;;18.60;99.90;;;;;;4895493;29;20202;-78
2021/08/12 05:38:32;;;;;;;13.57;12.37;;;18.70;99.90;;;;;;4895225;29;20200;-78
2021/08/12 05:41:01;;;;;;;14.30;13.10;;;18.80;99.90;;;;;;4895495;29;20203;-78
2021/08/12 05:43:29;;;;;;;14.93;13.73;;;18.70;99.90;;;;;;4895535;29;20223;-77
2021/08/12 05:45:56;;;;;;;13.27;12.27;;;18.60;99.90;;;;;;4894792;29;20753;-77
2021/08/12 05:48:23;;;;;;;14.33;13.20;;;18.60;99.90;;;;;;4896408;29;20200;-77
2021/08/12 05:50:51;;;;;;;13.73;12.73;;;18.50;99.90;;;;;;4896608;29;20235;-77
2021/08/12 05:53:21;;;;;;;10.63;9.60;;;18.40;99.90;;;;;;4895019;29;20239;-77
2021/08/12 05:55:48;;;;;;;9.77;8.77;;;18.30;99.90;;;;;;4895079;29;20212;-77
2021/08/12 05:58:16;;;;;;;11.53;10.53;;;18.20;99.90;;;;;;4895087;29;20300;-78
2021/08/12 06:00:43;;;;;;;11.90;10.77;;;18.20;99.90;;;;;;4895219;29;20208;-78
2021/08/12 06:03:12;;;;;;;11.20;10.17;;;18.20;99.90;;;;;;4895130;29;20224;-78
2021/08/12 06:05:40;;;;;;;11.50;10.43;;;18.20;99.90;;;;;;4895142;29;20681;-78
2021/08/12 06:08:08;;;;;;;11.17;10.03;;;18.30;99.90;;;;;;4895098;29;20763;-77
2021/08/12 06:10:37;;;;;;;11.87;10.87;;;18.40;99.90;;;;;;4895038;29;20200;-77
2021/08/12 06:13:04;;;;;;;12.33;11.33;;;18.60;99.90;;;;;;4894928;29;20231;-77
2021/08/12 06:15:35;;;;;;;12.40;11.40;;;18.80;99.90;;;;;;4895183;29;20212;-77
2021/08/12 06:18:09;;;;;;;13.80;12.70;;;18.90;99.90;;;;;;4894848;29;20207;-78
2021/08/12 06:20:36;;;;;;;13.00;12.00;;;19.00;99.90;;;;;;4894979;29;20211;-77
2021/08/12 06:23:05;;;;;;;11.17;10.23;;;19.00;99.90;;;;;;4894841;29;20215;-78
2021/08/12 06:25:32;;;;;;;12.97;11.87;;;19.20;99.90;;;;;;4896314;29;20196;-77
2021/08/12 06:28:00;;;;;;;13.63;12.63;;;19.40;99.90;;;;;;4896027;29;20695;-78
2021/08/12 06:30:27;;;;;;;10.40;9.00;;;19.60;99.90;;;;;;4894935;29;20204;-77
2021/08/12 06:32:54;;;;;;;12.97;11.73;;;19.60;99.90;;;;;;4896175;29;20233;-77
2021/08/12 06:35:21;;;;;;;16.23;14.77;;;19.70;99.90;;;;;;4894761;29;20223;-78
2021/08/12 06:37:52;;;;;;;12.53;11.63;;;19.70;99.90;;;;;;4896108;29;20563;-77
2021/08/12 06:40:22;;;;;;;10.20;9.37;;;19.80;99.90;;;;;;4894939;29;20209;-77
2021/08/12 06:42:50;;;;;;;8.10;6.33;;;20.00;99.90;;;;;;4894886;29;20672;-77
2021/08/12 06:45:20;;;;;;;7.70;6.47;;;20.10;99.90;;;;;;4898514;29;20206;-77
2021/08/12 06:47:49;;;;;;;10.23;9.33;;;20.30;99.90;;;;;;4898002;29;20213;-77
2021/08/12 06:50:17;;;;;;;8.10;6.63;;;20.50;99.90;;;;;;4898608;29;20594;-77
2021/08/12 06:52:44;;;;;;;12.17;11.07;;;20.60;99.90;;;;;;4898178;29;20233;-77
2021/08/12 06:55:12;;;;;;;11.13;10.23;;;20.80;99.90;;;;;;4898613;29;20649;-77
2021/08/12 06:57:39;;;;;;;7.10;6.13;;;21.00;99.90;;;;;;4898171;29;20226;-78
2021/08/12 07:00:07;;;;;;;8.10;6.33;;;21.20;99.90;;;;;;4898618;29;20200;-77
2021/08/12 07:02:36;;;;;;;9.23;8.43;;;21.50;99.90;;;;;;4898453;29;20204;-77
2021/08/12 07:05:03;;;;;;;9.60;8.80;;;21.80;99.90;;;;;;4898895;29;20206;-77
2021/08/12 07:07:30;;;;;;;13.27;12.20;;;21.90;99.90;;;;;;4898278;29;20228;-78
2021/08/12 07:09:57;;;;;;;11.23;10.27;;;22.00;99.90;;;;;;4890979;29;20209;-78
2021/08/12 07:12:25;;;;;;;12.73;11.57;;;22.00;99.90;;;;;;4898440;29;20290;-77
2021/08/12 07:14:53;;;;;;;13.90;12.50;;;22.00;99.90;;;;;;4898467;29;20211;-78
2021/08/12 07:17:20;;;;;;;12.50;11.40;;;22.20;99.90;;;;;;4899749;29;20260;-77
2021/08/12 07:19:49;;;;;;;13.30;12.33;;;22.40;99.90;;;;;;4898207;29;20201;-78
2021/08/12 07:22:18;;;;;;;11.80;10.80;;;22.70;99.90;;;;;;4898602;29;20213;-78
2021/08/12 07:24:46;;;;;;;10.03;9.10;;;23.10;99.90;;;;;;4898883;29;20216;-78
2021/08/12 07:27:12;;;;;;;8.57;7.33;;;23.20;99.90;;;;;;4898965;29;20307;-77
2021/08/12 07:29:39;;;;;;;13.27;8.77;;;23.60;99.90;;;;;;4900916;29;20251;-77
2021/08/12 07:32:07;;;;;;;8.83;7.80;;;23.90;99.90;;;;;;4901521;29;20208;-78
2021/08/12 07:34:43;;;;;;;10.83;9.83;;;24.10;99.90;;;;;;4899597;29;20697;-77
2021/08/12 07:37:11;;;;;;;10.97;10.07;;;24.30;99.90;;;;;;4900349;29;20233;-78
2021/08/12 07:39:38;;;;;;;11.73;10.73;;;24.20;99.90;;;;;;4899699;29;20233;-78
2021/08/12 07:42:06;;;;;;;14.33;13.13;;;24.20;99.90;;;;;;4898907;29;20268;-78
2021/08/12 07:44:33;;;;;;;8.77;7.70;;;24.20;99.90;;;;;;4899161;29;20495;-77
2021/08/12 07:47:00;;;;;;;12.20;11.13;;;23.90;99.90;;;;;;4898848;29;20244;-78
2021/08/12 07:49:28;;;;;;;12.60;11.70;;;23.90;99.90;;;;;;4900320;29;20682;-77
2021/08/12 07:51:56;;;;;;;12.50;11.60;;;24.10;99.90;;;;;;4898698;29;20260;-77
2021/08/12 07:54:25;;;;;;;13.83;12.73;;;24.30;99.90;;;;;;4920811;23;20240;-80
2021/08/12 07:56:52;;;;;;;7.40;6.27;;;24.80;99.90;;;;;;4896979;29;20748;-79
2021/08/12 07:59:19;;;;;;;7.67;6.97;;;25.10;99.90;;;;;;4897426;29;20557;-80
2021/08/12 08:01:46;;;;;;;6.40;5.53;;;25.20;99.90;;;;;;4897521;29;20219;-80
2021/08/12 08:04:12;;;;;;;9.83;8.90;;;25.80;99.90;;;;;;4898384;29;20220;-80
2021/08/12 08:06:39;;;;;;;12.63;11.73;;;26.10;99.90;;;;;;4898583;29;20205;-80
2021/08/12 08:09:06;;;;;;;12.50;11.60;;;26.40;99.90;;;;;;4898402;29;20197;-80
2021/08/12 08:11:34;;;;;;;12.60;11.50;;;26.70;99.90;;;;;;4897273;29;20204;-80
2021/08/12 08:14:01;;;;;;;12.40;11.30;;;26.90;99.90;;;;;;4897639;29;20284;-80
2021/08/12 08:16:28;;;;;;;12.53;11.43;;;26.90;99.90;;;;;;4893639;29;20260;-80
2021/08/12 08:18:55;;;;;;;11.97;11.00;;;27.10;99.90;;;;;;4896771;29;20201;-80
2021/08/12 08:21:22;;;;;;;7.33;6.00;;;27.20;99.90;;;;;;4897088;29;20209;-80
2021/08/12 08:23:49;;;;;;;10.43;9.57;;;27.60;99.90;;;;;;4896866;29;20229;-80
2021/08/12 08:26:16;;;;;;;9.27;8.37;;;27.80;99.90;;;;;;4897861;29;20260;-80
2021/08/12 08:28:44;;;;;;;13.57;10.40;;;28.00;99.90;;;;;;4897835;29;20220;-80
2021/08/12 08:31:11;;;;;;;11.40;10.30;;;28.00;99.90;;;;;;4898183;29;20197;-80
2021/08/12 08:33:38;;;;;;;13.80;12.60;;;28.10;99.90;;;;;;4896936;29;20693;-80
2021/08/12 08:36:05;;;;;;;12.60;11.67;;;28.10;99.90;;;;;;4897102;29;20220;-80
2021/08/12 08:38:33;;;;;;;11.67;10.57;;;28.40;99.90;;;;;;4897681;29;20260;-80
2021/08/12 08:41:02;;;;;;;10.17;9.27;;;28.40;99.90;;;;;;4896537;29;20292;-80
2021/08/12 08:43:31;;;;;;;10.97;10.10;;;28.20;99.90;;;;;;4896652;29;20272;-80
2021/08/12 08:46:01;;;;;;;11.30;10.40;;;28.50;99.90;;;;;;4890213;29;20562;-80
2021/08/12 08:48:32;;;;;;;10.93;9.93;;;28.90;99.90;;;;;;4896839;29;20224;-80
2021/08/12 08:51:00;;;;;;;13.57;10.30;;;29.20;99.90;;;;;;4889073;29;20201;-81
2021/08/12 08:53:30;;;;;;;11.00;9.87;;;29.10;99.90;;;;;;4896271;29;20710;-80
2021/08/12 08:55:57;;;;;;;12.77;11.57;;;28.90;99.90;;;;;;4896598;29;20279;-80
2021/08/12 08:58:24;;;;;;;10.90;9.93;;;28.70;99.90;;;;;;4896144;29;20209;-80
2021/08/12 09:00:52;;;;;;;11.40;10.50;;;28.50;99.90;;;;;;4896187;29;20227;-80
2021/08/12 09:03:20;;;;;;;10.33;9.53;;;28.80;99.90;;;;;;4896152;29;20235;-80
2021/08/12 09:05:47;;;;;;;10.70;9.80;;;29.00;99.90;;;;;;4896940;29;20203;-80
2021/08/12 09:08:14;;;;;;;12.93;11.90;;;29.00;99.90;;;;;;4896091;29;20300;-80
2021/08/12 09:10:41;;;;;;;11.63;10.73;;;28.80;99.90;;;;;;4896456;29;20260;-80
2021/08/12 09:13:08;;;;;;;12.60;11.50;;;29.00;99.90;;;;;;4897438;29;20231;-80
2021/08/12 09:15:42;;;;;;;12.83;11.73;;;29.20;99.90;;;;;;4896132;29;20208;-81
2021/08/12 09:18:28;;;;;;;12.60;11.70;;;29.10;99.90;;;;;;4896987;29;20200;-80
2021/08/12 09:20:57;;;;;;;12.90;11.90;;;29.40;99.90;;;;;;4895949;29;20205;-80
2021/08/12 09:23:27;;;;;;;12.57;11.67;;;29.60;99.90;;;;;;4896026;29;20228;-80
2021/08/12 09:25:56;;;;;;;12.07;11.07;;;30.00;99.90;;;;;;4897193;29;20212;-81
2021/08/12 09:28:25;;;;;;;11.60;10.70;;;30.20;99.90;;;;;;4896713;29;20209;-80
2021/08/12 09:31:11;;;;;;;12.07;9.80;;;30.20;99.90;;;;;;4895747;29;20227;-80
2021/08/12 09:33:52;;;;;;;8.23;7.43;;;30.10;99.90;;;;;;4895535;29;20228;-80
2021/08/12 09:36:33;;;;;;;9.13;8.33;;;30.10;99.90;;;;;;4897086;29;20200;-78
2021/08/12 09:39:09;;;;;;;12.03;10.93;;;30.40;99.90;;;;;;4889722;29;20201;-78
2021/08/12 09:41:40;;;;;;;11.87;10.97;;;30.30;99.90;;;;;;4895595;29;20216;-78
2021/08/12 09:44:08;;;;;;;10.80;10.00;;;30.60;99.90;;;;;;4897029;29;20216;-78
2021/08/12 09:46:35;;;;;;;11.03;10.13;;;30.40;99.90;;;;;;4896732;29;20714;-78
2021/08/12 09:49:03;;;;;;;11.80;10.90;;;30.50;99.90;;;;;;4895410;29;20299;-78
2021/08/12 09:51:33;;;;;;;12.40;11.40;;;30.50;99.90;;;;;;4895480;29;20208;-78
2021/08/12 09:54:05;;;;;;;11.57;10.77;;;30.60;99.90;;;;;;4890821;29;20975;-78
2021/08/12 09:56:32;;;;;;;11.17;9.97;;;30.50;99.90;;;;;;4896994;29;20265;-78
2021/08/12 09:59:08;;;;;;;11.90;10.97;;;30.80;99.90;;;;;;4901074;29;20197;-78
2021/08/12 10:01:35;;;;;;;10.87;9.87;;;31.00;99.90;;;;;;4893815;29;20200;-78
2021/08/12 10:04:24;;;;;;;10.53;9.70;;;30.70;99.90;;;;;;4896634;29;20296;-78
2021/08/12 10:06:51;;;;;;;11.20;10.40;;;30.70;99.90;;;;;;4897239;29;20726;-78
2021/08/12 10:09:18;;;;;;;11.67;10.77;;;30.60;99.90;;;;;;4896753;29;20224;-78
2021/08/12 10:11:45;;;;;;;12.57;11.47;;;30.60;99.90;;;;;;4897226;29;20696;-78
2021/08/12 10:14:12;;;;;;;12.20;11.20;;;30.40;99.90;;;;;;4897597;29;20276;-78
2021/08/12 10:16:39;;;;;;;13.27;12.13;;;30.40;99.90;;;;;;4895172;29;20277;-78
2021/08/12 10:19:08;;;;;;;13.43;12.33;;;30.60;99.90;;;;;;4899953;29;20207;-78
2021/08/12 10:21:39;;;;;;;11.70;10.80;;;30.60;99.90;;;;;;4899390;29;20296;-78
2021/08/12 10:24:07;;;;;;;11.20;10.30;;;30.80;99.90;;;;;;4900465;29;20216;-78
2021/08/12 10:26:35;;;;;;;11.23;10.37;;;30.80;99.90;;;;;;4898942;29;20223;-78
2021/08/12 10:29:04;;;;;;;11.40;10.60;;;30.80;99.90;;;;;;4898517;29;20220;-78
2021/08/12 10:31:32;;;;;;;9.07;8.17;;;30.90;99.90;;;;;;4900280;29;20197;-78
2021/08/12 10:33:59;;;;;;;11.60;10.60;;;30.80;99.90;;;;;;4900081;29;20212;-78
2021/08/12 10:36:26;;;;;;;11.60;10.70;;;30.70;99.90;;;;;;4894896;29;20243;-78
2021/08/12 10:38:56;;;;;;;11.10;10.10;;;30.60;99.90;;;;;;4899789;29;20193;-78
2021/08/12 10:41:23;;;;;;;12.63;11.63;;;30.50;99.90;;;;;;4899902;29;20272;-78
2021/08/12 10:43:54;;;;;;;11.17;10.37;;;30.40;99.90;;;;;;4898437;29;20608;-80
2021/08/12 10:46:33;;;;;;;10.27;9.37;;;30.50;99.90;;;;;;4900054;29;20269;-80
2021/08/12 10:49:25;;;;;;;9.50;8.70;;;30.40;99.90;;;;;;4892218;29;20653;-80
2021/08/12 10:52:00;;;;;;;12.53;11.53;;;30.40;99.90;;;;;;4899765;29;20295;-80
2021/08/12 10:54:29;;;;;;;12.47;11.57;;;30.30;99.90;;;;;;4899523;29;20278;-80
2021/08/12 10:57:16;;;;;;;9.67;8.70;;;30.30;99.90;;;;;;4898438;29;20612;-80
2021/08/12 10:59:44;;;;;;;9.67;8.77;;;30.10;99.90;;;;;;4899476;29;20738;-78
2021/08/12 11:02:44;;;;;;;10.83;9.13;;;30.10;99.90;;;;;;4901467;29;20666;-78
2021/08/12 11:05:11;;;;;;;9.67;8.87;;;30.00;99.90;;;;;;4899772;29;20294;-78
2021/08/12 11:07:53;;;;;;;10.37;9.10;;;30.20;99.90;;;;;;4899184;29;20260;-78
2021/08/12 11:10:23;;;;;;;6.93;6.23;;;30.30;99.90;;;;;;4898440;29;20263;-78
2021/08/12 11:13:03;;;;;;;8.03;6.47;;;30.50;99.90;;;;;;4897585;29;20209;-78
2021/08/12 11:15:56;;;;;;;7.77;6.57;;;30.20;99.90;;;;;;4900865;29;20554;-78
2021/08/12 11:18:44;;;;;;;8.07;6.27;;;30.20;99.90;;;;;;4898460;29;20296;-78
2021/08/12 11:21:38;;;;;;;7.87;6.07;;;30.30;99.90;;;;;;4898249;29;20287;-78
2021/08/12 11:24:06;;;;;;;10.43;6.60;;;30.20;99.90;;;;;;4895673;29;20702;-78
2021/08/12 11:27:05;;;;;;;7.00;6.23;;;30.20;99.90;;;;;;4901847;29;20235;-78
2021/08/12 11:29:34;;;;;;;7.47;6.77;;;30.20;99.90;;;;;;4902206;29;20614;-79
2021/08/12 11:32:09;;;;;;;7.67;6.77;;;30.20;99.90;;;;;;4893797;29;20663;-79
2021/08/12 11:34:41;;;;;;;7.53;6.73;;;30.30;99.90;;;;;;4900115;29;20251;-79
2021/08/12 11:37:12;;;;;;;6.70;6.07;;;30.50;99.90;;;;;;4901583;29;20420;-79
2021/08/12 11:39:54;;;;;;;9.37;7.03;;;30.50;99.90;;;;;;4901678;29;20208;-78
2021/08/12 11:42:34;;;;;;;8.03;6.50;;;30.60;99.90;;;;;;4900148;29;20215;-79
2021/08/12 11:45:04;;;;;;;7.20;6.50;;;30.60;99.90;;;;;;4894444;29;20462;-79
2021/08/12 11:47:31;;;;;;;8.00;7.20;;;30.70;99.90;;;;;;4900446;29;20212;-79
2021/08/12 11:49:59;;;;;;;7.90;7.10;;;30.70;99.90;;;;;;4901121;29;20701;-78
2021/08/12 11:52:27;;;;;;;7.03;6.33;;;30.70;99.90;;;;;;4899484;29;20212;-78
2021/08/12 11:54:59;;;;;;;7.87;6.57;;;30.60;99.90;;;;;;4900734;29;20228;-79
2021/08/12 11:57:42;;;;;;;8.00;7.17;;;30.70;99.90;;;;;;4899443;29;20213;-79
2021/08/12 12:00:11;;;;;;;6.30;5.70;;;30.60;99.90;;;;;;4894593;29;20196;-78
2021/08/12 12:02:52;;;;;;;10.30;9.37;;;30.50;99.90;;;;;;4900688;29;20197;-78
2021/08/12 12:05:21;;;;;;;13.13;11.93;;;30.40;99.90;;;;;;4900205;29;20208;-78
2021/08/12 12:07:49;;;;;;;11.93;10.83;;;30.30;99.90;;;;;;4898442;29;20205;-78
2021/08/12 12:10:27;;;;;;;9.43;8.53;;;30.20;99.90;;;;;;4900286;29;20323;-78
2021/08/12 12:13:06;;;;;;;10.00;9.00;;;30.20;99.90;;;;;;4898381;29;20211;-78
2021/08/12 12:15:35;;;;;;;12.63;11.57;;;30.10;99.90;;;;;;4898569;29;21318;-78
2021/08/12 12:18:03;;;;;;;11.97;10.97;;;30.40;99.90;;;;;;4898583;29;20617;-78
2021/08/12 12:20:31;;;;;;;12.70;11.60;;;30.60;99.90;;;;;;4898480;29;20209;-78
2021/08/12 12:23:00;;;;;;;11.37;10.37;;;30.60;99.90;;;;;;4892558;29;20608;-78
2021/08/12 12:25:28;;;;;;;10.67;9.80;;;30.60;99.90;;;;;;4897864;29;20269;-81
2021/08/12 12:27:57;;;;;;;10.10;9.17;;;30.70;99.90;;;;;;4896889;29;20599;-81
2021/08/12 12:30:25;;;;;;;9.50;8.70;;;30.60;99.90;;;;;;4897198;29;20211;-80
2021/08/12 12:33:03;;;;;;;12.20;11.30;;;30.40;99.90;;;;;;4896937;29;20220;-80
2021/08/12 12:35:31;;;;;;;12.37;11.43;;;30.10;99.90;;;;;;4898793;29;20209;-80
2021/08/12 12:38:00;;;;;;;11.90;11.00;;;30.10;99.90;;;;;;4897997;29;20201;-80
2021/08/12 12:40:30;;;;;;;9.97;8.80;;;30.20;99.90;;;;;;4897989;29;20201;-81
2021/08/12 12:42:59;;;;;;;8.70;7.90;;;30.20;99.90;;;;;;4891153;29;20204;-80
2021/08/12 12:45:27;;;;;;;9.80;8.90;;;30.10;99.90;;;;;;4896668;29;20212;-80